Trussville, Alabama
Current Conditions -  °F | °C
As of 2:53 AM on Wednesday 26 Nov 2014 (Local Time) from KBHM Reporting Station
Clear Clear  
Wind Chill: 35°   Ceiling: Unl
Heat Index: 39°   Visibility: 10mi
Dew Point: 28°   Wind: 6mph
Humidity: 65%   Direction: 310°NW
Pressure: 30.11"   Gusts: NA
Location:  33.62°N, 86.6°W
Report Text: KBHM 260853Z 31005KT 10SM CLR 04/M02 A3011 RMK AO2 SLP197 T00391022 53000
Loading
Personal Weather Stations






























Interactive Weather Map New forecast layout! Learn more

10-Day Weather Forecast

Advertisements
Track Severe Weather on mobile